sensor_id;sensor_type;location;lat;lon;timestamp;P1;durP1;ratioP1;P2;durP2;ratioP2
27566;SDS011;15006;48.584;9.186;2023-06-10T00:00:43;5.97;;;5.57;;
27566;SDS011;15006;48.584;9.186;2023-06-10T00:03:10;5.82;;;5.47;;
27566;SDS011;15006;48.584;9.186;2023-06-10T00:05:36;5.68;;;5.18;;
27566;SDS011;15006;48.584;9.186;2023-06-10T00:08:04;5.43;;;4.90;;
27566;SDS011;15006;48.584;9.186;2023-06-10T00:10:34;5.70;;;5.40;;
27566;SDS011;15006;48.584;9.186;2023-06-10T00:13:01;5.78;;;5.38;;
27566;SDS011;15006;48.584;9.186;2023-06-10T00:15:33;6.47;;;5.90;;
27566;SDS011;15006;48.584;9.186;2023-06-10T00:18:01;5.80;;;5.40;;
27566;SDS011;15006;48.584;9.186;2023-06-10T00:20:29;5.80;;;5.40;;
27566;SDS011;15006;48.584;9.186;2023-06-10T00:22:58;5.70;;;5.40;;
27566;SDS011;15006;48.584;9.186;2023-06-10T00:25:26;5.57;;;5.18;;
27566;SDS011;15006;48.584;9.186;2023-06-10T00:27:52;5.68;;;5.22;;
27566;SDS011;15006;48.584;9.186;2023-06-10T00:30:18;5.50;;;5.20;;
27566;SDS011;15006;48.584;9.186;2023-06-10T00:32:44;6.15;;;5.65;;
27566;SDS011;15006;48.584;9.186;2023-06-10T00:35:10;5.90;;;5.38;;
27566;SDS011;15006;48.584;9.186;2023-06-10T00:37:36;5.60;;;5.30;;
27566;SDS011;15006;48.584;9.186;2023-06-10T00:40:03;5.85;;;5.53;;
27566;SDS011;15006;48.584;9.186;2023-06-10T00:42:31;5.90;;;5.50;;
27566;SDS011;15006;48.584;9.186;2023-06-10T00:44:57;8.15;;;5.70;;
27566;SDS011;15006;48.584;9.186;2023-06-10T00:47:23;6.28;;;5.72;;
27566;SDS011;15006;48.584;9.186;2023-06-10T00:49:49;6.07;;;5.68;;
27566;SDS011;15006;48.584;9.186;2023-06-10T00:52:16;6.07;;;5.68;;
27566;SDS011;15006;48.584;9.186;2023-06-10T00:54:44;6.28;;;5.90;;
27566;SDS011;15006;48.584;9.186;2023-06-10T00:57:11;6.47;;;5.90;;
27566;SDS011;15006;48.584;9.186;2023-06-10T00:59:42;6.10;;;5.70;;
27566;SDS011;15006;48.584;9.186;2023-06-10T01:02:14;6.65;;;6.15;;
27566;SDS011;15006;48.584;9.186;2023-06-10T01:04:41;6.15;;;5.65;;
27566;SDS011;15006;48.584;9.186;2023-06-10T01:07:24;6.00;;;5.53;;
27566;SDS011;15006;48.584;9.186;2023-06-10T01:10:09;6.20;;;5.90;;
27566;SDS011;15006;48.584;9.186;2023-06-10T01:12:45;6.20;;;5.82;;
27566;SDS011;15006;48.584;9.186;2023-06-10T01:15:21;6.05;;;5.65;;
27566;SDS011;15006;48.584;9.186;2023-06-10T01:17:54;6.50;;;6.03;;
27566;SDS011;15006;48.584;9.186;2023-06-10T01:20:28;5.90;;;5.50;;
27566;SDS011;15006;48.584;9.186;2023-06-10T01:22:58;6.07;;;5.57;;
27566;SDS011;15006;48.584;9.186;2023-06-10T01:25:26;6.10;;;5.80;;
27566;SDS011;15006;48.584;9.186;2023-06-10T01:28:13;5.97;;;5.68;;
27566;SDS011;15006;48.584;9.186;2023-06-10T01:31:06;6.32;;;6.03;;
27566;SDS011;15006;48.584;9.186;2023-06-10T01:33:45;6.20;;;5.90;;
27566;SDS011;15006;48.584;9.186;2023-06-10T01:36:15;7.65;;;5.60;;
27566;SDS011;15006;48.584;9.186;2023-06-10T01:38:43;6.40;;;6.00;;
27566;SDS011;15006;48.584;9.186;2023-06-10T01:41:16;6.60;;;6.10;;
27566;SDS011;15006;48.584;9.186;2023-06-10T01:43:43;6.57;;;5.97;;
27566;SDS011;15006;48.584;9.186;2023-06-10T01:46:10;6.00;;;5.60;;
27566;SDS011;15006;48.584;9.186;2023-06-10T01:48:37;5.97;;;5.63;;
27566;SDS011;15006;48.584;9.186;2023-06-10T01:51:04;5.72;;;5.45;;
27566;SDS011;15006;48.584;9.186;2023-06-10T01:53:30;6.70;;;6.20;;
27566;SDS011;15006;48.584;9.186;2023-06-10T01:55:56;6.43;;;6.03;;
27566;SDS011;15006;48.584;9.186;2023-06-10T01:58:22;6.47;;;5.93;;
27566;SDS011;15006;48.584;9.186;2023-06-10T02:00:49;12.68;;;6.57;;
27566;SDS011;15006;48.584;9.186;2023-06-10T02:03:15;7.88;;;6.18;;
27566;SDS011;15006;48.584;9.186;2023-06-10T02:05:41;6.82;;;6.32;;
27566;SDS011;15006;48.584;9.186;2023-06-10T02:08:07;6.97;;;6.43;;
27566;SDS011;15006;48.584;9.186;2023-06-10T02:10:33;7.00;;;6.60;;
27566;SDS011;15006;48.584;9.186;2023-06-10T02:12:59;7.00;;;6.60;;
27566;SDS011;15006;48.584;9.186;2023-06-10T02:15:25;7.50;;;7.00;;
27566;SDS011;15006;48.584;9.186;2023-06-10T02:17:51;7.28;;;6.88;;
27566;SDS011;15006;48.584;9.186;2023-06-10T02:20:18;8.05;;;7.45;;
27566;SDS011;15006;48.584;9.186;2023-06-10T02:22:44;7.45;;;6.97;;
27566;SDS011;15006;48.584;9.186;2023-06-10T02:25:10;7.35;;;6.90;;
27566;SDS011;15006;48.584;9.186;2023-06-10T02:27:37;7.07;;;6.60;;
27566;SDS011;15006;48.584;9.186;2023-06-10T02:30:03;7.30;;;6.80;;
27566;SDS011;15006;48.584;9.186;2023-06-10T02:32:30;7.57;;;7.18;;
27566;SDS011;15006;48.584;9.186;2023-06-10T02:34:56;7.47;;;6.78;;
27566;SDS011;15006;48.584;9.186;2023-06-10T02:37:23;6.95;;;6.55;;
27566;SDS011;15006;48.584;9.186;2023-06-10T02:39:49;7.97;;;7.25;;
27566;SDS011;15006;48.584;9.186;2023-06-10T02:42:15;7.00;;;6.60;;
27566;SDS011;15006;48.584;9.186;2023-06-10T02:44:41;6.78;;;6.47;;
27566;SDS011;15006;48.584;9.186;2023-06-10T02:47:07;6.35;;;5.95;;
27566;SDS011;15006;48.584;9.186;2023-06-10T02:49:33;7.05;;;6.55;;
27566;SDS011;15006;48.584;9.186;2023-06-10T02:51:59;6.70;;;6.30;;
27566;SDS011;15006;48.584;9.186;2023-06-10T02:54:26;8.07;;;6.25;;
27566;SDS011;15006;48.584;9.186;2023-06-10T02:56:52;6.63;;;6.28;;
27566;SDS011;15006;48.584;9.186;2023-06-10T02:59:21;6.57;;;6.07;;
27566;SDS011;15006;48.584;9.186;2023-06-10T03:01:47;6.55;;;6.15;;
27566;SDS011;15006;48.584;9.186;2023-06-10T03:04:13;6.45;;;6.05;;
27566;SDS011;15006;48.584;9.186;2023-06-10T03:06:39;6.35;;;5.95;;
27566;SDS011;15006;48.584;9.186;2023-06-10T03:09:06;6.72;;;6.32;;
27566;SDS011;15006;48.584;9.186;2023-06-10T03:11:35;6.50;;;6.10;;
27566;SDS011;15006;48.584;9.186;2023-06-10T03:14:01;6.60;;;6.15;;
27566;SDS011;15006;48.584;9.186;2023-06-10T03:16:27;6.43;;;6.10;;
27566;SDS011;15006;48.584;9.186;2023-06-10T03:18:55;6.75;;;6.25;;
27566;SDS011;15006;48.584;9.186;2023-06-10T03:21:21;6.60;;;6.20;;
27566;SDS011;15006;48.584;9.186;2023-06-10T03:23:47;7.00;;;6.53;;
27566;SDS011;15006;48.584;9.186;2023-06-10T03:26:13;6.32;;;5.93;;
27566;SDS011;15006;48.584;9.186;2023-06-10T03:28:40;7.07;;;6.60;;
27566;SDS011;15006;48.584;9.186;2023-06-10T03:31:07;6.25;;;5.95;;
27566;SDS011;15006;48.584;9.186;2023-06-10T03:33:33;6.70;;;6.30;;
27566;SDS011;15006;48.584;9.186;2023-06-10T03:35:59;6.53;;;6.22;;
27566;SDS011;15006;48.584;9.186;2023-06-10T03:38:25;7.35;;;6.72;;
27566;SDS011;15006;48.584;9.186;2023-06-10T03:40:51;7.38;;;6.90;;
27566;SDS011;15006;48.584;9.186;2023-06-10T03:43:17;7.55;;;7.10;;
27566;SDS011;15006;48.584;9.186;2023-06-10T03:45:43;7.43;;;6.93;;
27566;SDS011;15006;48.584;9.186;2023-06-10T03:48:10;7.57;;;6.80;;
27566;SDS011;15006;48.584;9.186;2023-06-10T03:50:36;7.25;;;6.60;;
27566;SDS011;15006;48.584;9.186;2023-06-10T03:53:02;6.80;;;6.40;;
27566;SDS011;15006;48.584;9.186;2023-06-10T03:55:28;7.05;;;6.38;;
27566;SDS011;15006;48.584;9.186;2023-06-10T03:57:54;7.25;;;6.85;;
27566;SDS011;15006;48.584;9.186;2023-06-10T04:00:20;7.60;;;6.93;;
27566;SDS011;15006;48.584;9.186;2023-06-10T04:02:47;7.00;;;6.60;;
27566;SDS011;15006;48.584;9.186;2023-06-10T04:05:15;7.57;;;7.07;;
27566;SDS011;15006;48.584;9.186;2023-06-10T04:07:42;7.32;;;6.82;;
27566;SDS011;15006;48.584;9.186;2023-06-10T04:10:10;7.32;;;6.93;;
27566;SDS011;15006;48.584;9.186;2023-06-10T04:12:37;7.03;;;6.55;;
27566;SDS011;15006;48.584;9.186;2023-06-10T04:15:03;7.28;;;6.78;;
27566;SDS011;15006;48.584;9.186;2023-06-10T04:17:30;7.43;;;6.90;;
27566;SDS011;15006;48.584;9.186;2023-06-10T04:19:57;7.30;;;6.90;;
27566;SDS011;15006;48.584;9.186;2023-06-10T04:22:26;6.95;;;6.53;;
27566;SDS011;15006;48.584;9.186;2023-06-10T04:24:52;7.18;;;6.68;;
27566;SDS011;15006;48.584;9.186;2023-06-10T04:27:18;7.15;;;6.68;;
27566;SDS011;15006;48.584;9.186;2023-06-10T04:29:44;7.03;;;6.63;;
27566;SDS011;15006;48.584;9.186;2023-06-10T04:32:10;7.70;;;6.97;;
27566;SDS011;15006;48.584;9.186;2023-06-10T04:34:36;7.18;;;6.68;;
27566;SDS011;15006;48.584;9.186;2023-06-10T04:37:05;6.85;;;6.35;;
27566;SDS011;15006;48.584;9.186;2023-06-10T04:39:32;7.28;;;6.68;;
27566;SDS011;15006;48.584;9.186;2023-06-10T04:41:58;7.13;;;6.53;;
27566;SDS011;15006;48.584;9.186;2023-06-10T04:44:24;7.32;;;6.57;;
27566;SDS011;15006;48.584;9.186;2023-06-10T04:46:51;6.50;;;6.00;;
27566;SDS011;15006;48.584;9.186;2023-06-10T04:49:17;6.50;;;6.10;;
27566;SDS011;15006;48.584;9.186;2023-06-10T04:51:43;6.70;;;6.30;;
27566;SDS011;15006;48.584;9.186;2023-06-10T04:54:09;6.35;;;5.95;;
27566;SDS011;15006;48.584;9.186;2023-06-10T04:56:35;5.88;;;5.57;;
27566;SDS011;15006;48.584;9.186;2023-06-10T04:59:01;5.78;;;5.38;;
27566;SDS011;15006;48.584;9.186;2023-06-10T05:01:27;6.43;;;6.10;;
27566;SDS011;15006;48.584;9.186;2023-06-10T05:03:53;5.85;;;5.55;;
27566;SDS011;15006;48.584;9.186;2023-06-10T05:06:19;5.30;;;4.90;;
27566;SDS011;15006;48.584;9.186;2023-06-10T05:08:45;5.55;;;5.25;;
27566;SDS011;15006;48.584;9.186;2023-06-10T05:11:12;5.40;;;5.10;;
27566;SDS011;15006;48.584;9.186;2023-06-10T05:13:38;5.57;;;5.18;;
27566;SDS011;15006;48.584;9.186;2023-06-10T05:16:05;5.55;;;5.15;;
27566;SDS011;15006;48.584;9.186;2023-06-10T05:18:32;5.13;;;4.93;;
27566;SDS011;15006;48.584;9.186;2023-06-10T05:21:02;5.50;;;5.20;;
27566;SDS011;15006;48.584;9.186;2023-06-10T05:23:28;5.57;;;5.25;;
27566;SDS011;15006;48.584;9.186;2023-06-10T05:25:54;4.85;;;4.65;;
27566;SDS011;15006;48.584;9.186;2023-06-10T05:28:20;5.30;;;5.10;;
27566;SDS011;15006;48.584;9.186;2023-06-10T05:30:48;5.75;;;5.45;;
27566;SDS011;15006;48.584;9.186;2023-06-10T05:33:14;5.63;;;5.20;;
27566;SDS011;15006;48.584;9.186;2023-06-10T05:35:40;6.00;;;5.55;;
27566;SDS011;15006;48.584;9.186;2023-06-10T05:38:06;5.57;;;5.20;;
27566;SDS011;15006;48.584;9.186;2023-06-10T05:40:32;5.47;;;5.13;;
27566;SDS011;15006;48.584;9.186;2023-06-10T05:42:59;6.38;;;5.53;;
27566;SDS011;15006;48.584;9.186;2023-06-10T05:45:25;5.70;;;5.30;;
27566;SDS011;15006;48.584;9.186;2023-06-10T05:47:50;5.68;;;5.47;;
27566;SDS011;15006;48.584;9.186;2023-06-10T05:50:17;5.97;;;5.57;;
27566;SDS011;15006;48.584;9.186;2023-06-10T05:52:43;5.80;;;5.50;;
27566;SDS011;15006;48.584;9.186;2023-06-10T05:55:09;6.95;;;5.45;;
27566;SDS011;15006;48.584;9.186;2023-06-10T05:57:35;5.35;;;5.05;;
27566;SDS011;15006;48.584;9.186;2023-06-10T06:00:01;5.30;;;4.90;;
27566;SDS011;15006;48.584;9.186;2023-06-10T06:02:29;5.20;;;4.85;;
27566;SDS011;15006;48.584;9.186;2023-06-10T06:04:55;4.88;;;4.65;;
27566;SDS011;15006;48.584;9.186;2023-06-10T06:07:21;5.65;;;5.22;;
27566;SDS011;15006;48.584;9.186;2023-06-10T06:09:47;5.18;;;4.93;;
27566;SDS011;15006;48.584;9.186;2023-06-10T06:12:13;5.80;;;5.25;;
27566;SDS011;15006;48.584;9.186;2023-06-10T06:14:39;4.90;;;4.60;;
27566;SDS011;15006;48.584;9.186;2023-06-10T06:17:06;4.63;;;4.43;;
27566;SDS011;15006;48.584;9.186;2023-06-10T06:19:33;4.55;;;4.35;;
27566;SDS011;15006;48.584;9.186;2023-06-10T06:21:59;4.88;;;4.57;;
27566;SDS011;15006;48.584;9.186;2023-06-10T06:24:25;4.63;;;4.32;;
27566;SDS011;15006;48.584;9.186;2023-06-10T06:26:52;4.57;;;4.38;;
27566;SDS011;15006;48.584;9.186;2023-06-10T06:29:18;4.35;;;4.15;;
27566;SDS011;15006;48.584;9.186;2023-06-10T06:31:44;4.53;;;4.18;;
27566;SDS011;15006;48.584;9.186;2023-06-10T06:34:11;4.63;;;4.30;;
27566;SDS011;15006;48.584;9.186;2023-06-10T06:36:38;4.40;;;4.20;;
27566;SDS011;15006;48.584;9.186;2023-06-10T06:39:05;4.43;;;4.22;;
27566;SDS011;15006;48.584;9.186;2023-06-10T06:41:31;4.70;;;3.97;;
27566;SDS011;15006;48.584;9.186;2023-06-10T06:43:58;4.60;;;4.30;;
27566;SDS011;15006;48.584;9.186;2023-06-10T06:46:24;4.30;;;4.07;;
27566;SDS011;15006;48.584;9.186;2023-06-10T06:48:52;4.32;;;4.05;;
27566;SDS011;15006;48.584;9.186;2023-06-10T06:51:18;4.53;;;4.32;;
27566;SDS011;15006;48.584;9.186;2023-06-10T06:53:45;4.38;;;4.13;;
27566;SDS011;15006;48.584;9.186;2023-06-10T06:56:11;4.50;;;4.10;;
27566;SDS011;15006;48.584;9.186;2023-06-10T06:58:38;4.18;;;3.97;;
27566;SDS011;15006;48.584;9.186;2023-06-10T07:01:05;4.28;;;3.97;;
27566;SDS011;15006;48.584;9.186;2023-06-10T07:03:31;4.03;;;3.83;;
27566;SDS011;15006;48.584;9.186;2023-06-10T07:05:58;5.15;;;4.25;;
27566;SDS011;15006;48.584;9.186;2023-06-10T07:08:25;4.28;;;3.95;;
27566;SDS011;15006;48.584;9.186;2023-06-10T07:10:51;4.70;;;4.03;;
27566;SDS011;15006;48.584;9.186;2023-06-10T07:13:18;4.47;;;4.18;;
27566;SDS011;15006;48.584;9.186;2023-06-10T07:15:45;4.63;;;4.20;;
27566;SDS011;15006;48.584;9.186;2023-06-10T07:18:12;4.13;;;3.92;;
27566;SDS011;15006;48.584;9.186;2023-06-10T07:20:38;3.85;;;3.65;;
27566;SDS011;15006;48.584;9.186;2023-06-10T07:23:04;4.05;;;3.75;;
27566;SDS011;15006;48.584;9.186;2023-06-10T07:25:30;4.15;;;3.95;;
27566;SDS011;15006;48.584;9.186;2023-06-10T07:27:57;4.00;;;3.70;;
27566;SDS011;15006;48.584;9.186;2023-06-10T07:30:23;7.22;;;3.78;;
27566;SDS011;15006;48.584;9.186;2023-06-10T07:32:50;3.45;;;3.33;;
27566;SDS011;15006;48.584;9.186;2023-06-10T07:35:17;4.38;;;4.07;;
27566;SDS011;15006;48.584;9.186;2023-06-10T07:37:44;3.88;;;3.67;;
27566;SDS011;15006;48.584;9.186;2023-06-10T07:40:11;4.00;;;3.70;;
27566;SDS011;15006;48.584;9.186;2023-06-10T07:42:37;3.80;;;3.60;;
27566;SDS011;15006;48.584;9.186;2023-06-10T07:45:04;3.95;;;3.75;;
27566;SDS011;15006;48.584;9.186;2023-06-10T07:47:32;3.80;;;3.60;;
27566;SDS011;15006;48.584;9.186;2023-06-10T07:50:00;4.15;;;3.55;;
27566;SDS011;15006;48.584;9.186;2023-06-10T07:52:26;3.38;;;3.25;;
27566;SDS011;15006;48.584;9.186;2023-06-10T07:54:54;6.65;;;3.67;;
27566;SDS011;15006;48.584;9.186;2023-06-10T07:57:20;3.28;;;3.17;;
27566;SDS011;15006;48.584;9.186;2023-06-10T07:59:46;3.90;;;3.58;;
27566;SDS011;15006;48.584;9.186;2023-06-10T08:02:12;2.92;;;2.83;;
27566;SDS011;15006;48.584;9.186;2023-06-10T08:04:38;3.35;;;3.05;;
27566;SDS011;15006;48.584;9.186;2023-06-10T08:07:04;3.03;;;2.92;;
27566;SDS011;15006;48.584;9.186;2023-06-10T08:09:30;3.28;;;3.17;;
27566;SDS011;15006;48.584;9.186;2023-06-10T08:11:56;3.25;;;3.05;;
27566;SDS011;15006;48.584;9.186;2023-06-10T08:14:22;3.45;;;3.25;;
27566;SDS011;15006;48.584;9.186;2023-06-10T08:16:48;4.10;;;3.70;;
27566;SDS011;15006;48.584;9.186;2023-06-10T08:19:14;4.63;;;3.28;;
27566;SDS011;15006;48.584;9.186;2023-06-10T08:21:40;2.83;;;2.50;;
27566;SDS011;15006;48.584;9.186;2023-06-10T08:24:07;2.85;;;2.75;;
27566;SDS011;15006;48.584;9.186;2023-06-10T08:26:33;4.35;;;3.78;;
27566;SDS011;15006;48.584;9.186;2023-06-10T08:28:59;3.40;;;3.25;;
27566;SDS011;15006;48.584;9.186;2023-06-10T08:31:25;3.10;;;3.00;;
27566;SDS011;15006;48.584;9.186;2023-06-10T08:33:51;3.00;;;2.70;;
27566;SDS011;15006;48.584;9.186;2023-06-10T08:36:17;3.78;;;3.58;;
27566;SDS011;15006;48.584;9.186;2023-06-10T08:38:43;3.08;;;2.88;;
27566;SDS011;15006;48.584;9.186;2023-06-10T08:41:10;3.13;;;2.92;;
27566;SDS011;15006;48.584;9.186;2023-06-10T08:43:48;2.85;;;2.75;;
27566;SDS011;15006;48.584;9.186;2023-06-10T08:46:25;2.75;;;2.65;;
27566;SDS011;15006;48.584;9.186;2023-06-10T08:48:52;13.60;;;3.45;;
27566;SDS011;15006;48.584;9.186;2023-06-10T08:51:21;3.63;;;3.30;;
27566;SDS011;15006;48.584;9.186;2023-06-10T08:53:52;2.85;;;2.65;;
27566;SDS011;15006;48.584;9.186;2023-06-10T08:56:28;3.13;;;2.90;;
27566;SDS011;15006;48.584;9.186;2023-06-10T08:58:56;3.40;;;3.20;;
27566;SDS011;15006;48.584;9.186;2023-06-10T09:01:23;2.90;;;2.70;;
27566;SDS011;15006;48.584;9.186;2023-06-10T09:03:51;2.90;;;2.65;;
27566;SDS011;15006;48.584;9.186;2023-06-10T09:06:18;2.72;;;2.53;;
27566;SDS011;15006;48.584;9.186;2023-06-10T09:08:44;2.45;;;2.30;;
27566;SDS011;15006;48.584;9.186;2023-06-10T09:11:10;2.47;;;2.38;;
27566;SDS011;15006;48.584;9.186;2023-06-10T09:13:37;2.55;;;2.45;;
27566;SDS011;15006;48.584;9.186;2023-06-10T09:16:03;2.35;;;2.15;;
27566;SDS011;15006;48.584;9.186;2023-06-10T09:18:29;3.63;;;2.20;;
27566;SDS011;15006;48.584;9.186;2023-06-10T09:20:55;2.50;;;2.40;;
27566;SDS011;15006;48.584;9.186;2023-06-10T09:23:21;2.03;;;1.92;;
27566;SDS011;15006;48.584;9.186;2023-06-10T09:25:53;2.00;;;1.90;;
27566;SDS011;15006;48.584;9.186;2023-06-10T09:28:25;4.50;;;2.17;;
27566;SDS011;15006;48.584;9.186;2023-06-10T09:31:01;2.20;;;2.10;;
27566;SDS011;15006;48.584;9.186;2023-06-10T09:33:32;3.42;;;1.90;;
27566;SDS011;15006;48.584;9.186;2023-06-10T09:36:03;2.03;;;1.90;;
27566;SDS011;15006;48.584;9.186;2023-06-10T09:38:31;2.67;;;2.45;;
27566;SDS011;15006;48.584;9.186;2023-06-10T09:41:00;2.10;;;2.00;;
27566;SDS011;15006;48.584;9.186;2023-06-10T09:43:43;2.03;;;1.92;;
27566;SDS011;15006;48.584;9.186;2023-06-10T09:46:18;2.42;;;2.33;;
27566;SDS011;15006;48.584;9.186;2023-06-10T09:48:47;2.40;;;2.20;;
27566;SDS011;15006;48.584;9.186;2023-06-10T09:51:13;2.95;;;2.20;;
27566;SDS011;15006;48.584;9.186;2023-06-10T09:53:47;1.92;;;1.75;;
27566;SDS011;15006;48.584;9.186;2023-06-10T09:56:16;2.00;;;1.90;;
27566;SDS011;15006;48.584;9.186;2023-06-10T09:58:43;1.75;;;1.65;;
27566;SDS011;15006;48.584;9.186;2023-06-10T10:01:12;2.13;;;2.03;;
27566;SDS011;15006;48.584;9.186;2023-06-10T10:03:46;2.28;;;1.50;;
27566;SDS011;15006;48.584;9.186;2023-06-10T10:06:15;2.00;;;1.90;;
27566;SDS011;15006;48.584;9.186;2023-06-10T10:08:43;1.83;;;1.73;;
27566;SDS011;15006;48.584;9.186;2023-06-10T10:11:17;2.20;;;2.10;;
27566;SDS011;15006;48.584;9.186;2023-06-10T10:13:44;2.17;;;1.98;;
27566;SDS011;15006;48.584;9.186;2023-06-10T10:16:17;1.70;;;1.60;;
27566;SDS011;15006;48.584;9.186;2023-06-10T10:18:55;2.30;;;1.92;;
27566;SDS011;15006;48.584;9.186;2023-06-10T10:21:35;1.90;;;1.80;;
27566;SDS011;15006;48.584;9.186;2023-06-10T10:24:17;2.40;;;2.30;;
27566;SDS011;15006;48.584;9.186;2023-06-10T10:26:47;1.87;;;1.77;;
27566;SDS011;15006;48.584;9.186;2023-06-10T10:29:28;2.47;;;2.30;;
27566;SDS011;15006;48.584;9.186;2023-06-10T10:32:00;2.75;;;2.05;;
27566;SDS011;15006;48.584;9.186;2023-06-10T10:34:34;2.17;;;1.83;;
27566;SDS011;15006;48.584;9.186;2023-06-10T10:37:23;4.93;;;2.00;;
27566;SDS011;15006;48.584;9.186;2023-06-10T10:39:51;2.28;;;1.75;;
27566;SDS011;15006;48.584;9.186;2023-06-10T10:42:17;1.85;;;1.75;;
27566;SDS011;15006;48.584;9.186;2023-06-10T10:44:44;1.60;;;1.60;;
27566;SDS011;15006;48.584;9.186;2023-06-10T10:47:10;1.67;;;1.60;;
27566;SDS011;15006;48.584;9.186;2023-06-10T10:49:38;3.47;;;1.90;;
27566;SDS011;15006;48.584;9.186;2023-06-10T10:52:10;1.98;;;1.88;;
27566;SDS011;15006;48.584;9.186;2023-06-10T10:54:37;3.67;;;1.70;;
27566;SDS011;15006;48.584;9.186;2023-06-10T10:57:17;1.63;;;1.52;;
27566;SDS011;15006;48.584;9.186;2023-06-10T10:59:57;1.80;;;1.70;;
27566;SDS011;15006;48.584;9.186;2023-06-10T11:02:41;1.90;;;1.80;;
27566;SDS011;15006;48.584;9.186;2023-06-10T11:05:09;1.67;;;1.67;;
27566;SDS011;15006;48.584;9.186;2023-06-10T11:07:38;2.70;;;1.60;;
27566;SDS011;15006;48.584;9.186;2023-06-10T11:10:11;1.77;;;1.67;;
27566;SDS011;15006;48.584;9.186;2023-06-10T11:12:42;1.90;;;1.80;;
27566;SDS011;15006;48.584;9.186;2023-06-10T11:15:20;2.00;;;1.90;;
27566;SDS011;15006;48.584;9.186;2023-06-10T11:18:08;2.00;;;1.90;;
27566;SDS011;15006;48.584;9.186;2023-06-10T11:21:01;2.20;;;2.00;;
27566;SDS011;15006;48.584;9.186;2023-06-10T11:26:09;2.05;;;1.95;;
27566;SDS011;15006;48.584;9.186;2023-06-10T11:31:32;1.67;;;1.60;;
27566;SDS011;15006;48.584;9.186;2023-06-10T11:34:04;1.75;;;1.65;;
27566;SDS011;15006;48.584;9.186;2023-06-10T11:36:32;1.63;;;1.52;;
27566;SDS011;15006;48.584;9.186;2023-06-10T11:39:04;1.80;;;1.70;;
27566;SDS011;15006;48.584;9.186;2023-06-10T11:41:31;1.80;;;1.70;;
27566;SDS011;15006;48.584;9.186;2023-06-10T11:44:12;2.58;;;1.95;;
27566;SDS011;15006;48.584;9.186;2023-06-10T11:46:39;1.70;;;1.60;;
27566;SDS011;15006;48.584;9.186;2023-06-10T11:49:07;1.75;;;1.65;;
27566;SDS011;15006;48.584;9.186;2023-06-10T11:51:35;1.40;;;1.40;;
27566;SDS011;15006;48.584;9.186;2023-06-10T11:54:04;2.10;;;2.00;;
27566;SDS011;15006;48.584;9.186;2023-06-10T11:56:30;1.60;;;1.60;;
27566;SDS011;15006;48.584;9.186;2023-06-10T11:58:58;5.78;;;1.55;;
27566;SDS011;15006;48.584;9.186;2023-06-10T12:01:29;1.85;;;1.75;;
27566;SDS011;15006;48.584;9.186;2023-06-10T12:04:04;1.83;;;1.73;;
27566;SDS011;15006;48.584;9.186;2023-06-10T12:06:42;1.90;;;1.80;;
27566;SDS011;15006;48.584;9.186;2023-06-10T12:09:23;1.42;;;1.42;;
27566;SDS011;15006;48.584;9.186;2023-06-10T12:11:52;2.00;;;1.90;;
27566;SDS011;15006;48.584;9.186;2023-06-10T12:20:00;1.40;;;1.40;;
27566;SDS011;15006;48.584;9.186;2023-06-10T12:22:27;1.55;;;1.45;;
27566;SDS011;15006;48.584;9.186;2023-06-10T12:25:06;1.58;;;1.48;;
27566;SDS011;15006;48.584;9.186;2023-06-10T12:27:34;1.35;;;1.30;;
27566;SDS011;15006;48.584;9.186;2023-06-10T12:30:02;1.38;;;1.27;;
27566;SDS011;15006;48.584;9.186;2023-06-10T12:35:10;1.40;;;1.40;;
27566;SDS011;15006;48.584;9.186;2023-06-10T12:37:38;1.77;;;1.67;;
27566;SDS011;15006;48.584;9.186;2023-06-10T12:40:05;1.40;;;1.40;;
27566;SDS011;15006;48.584;9.186;2023-06-10T12:42:37;1.40;;;1.40;;
27566;SDS011;15006;48.584;9.186;2023-06-10T12:45:04;3.35;;;1.40;;
27566;SDS011;15006;48.584;9.186;2023-06-10T12:47:33;1.55;;;1.45;;
27566;SDS011;15006;48.584;9.186;2023-06-10T12:50:03;1.40;;;1.30;;
27566;SDS011;15006;48.584;9.186;2023-06-10T12:52:31;1.50;;;1.40;;
27566;SDS011;15006;48.584;9.186;2023-06-10T12:54:57;1.60;;;1.50;;
27566;SDS011;15006;48.584;9.186;2023-06-10T12:57:26;1.50;;;1.40;;
27566;SDS011;15006;48.584;9.186;2023-06-10T12:59:52;1.50;;;1.40;;
27566;SDS011;15006;48.584;9.186;2023-06-10T13:02:18;1.38;;;1.20;;
27566;SDS011;15006;48.584;9.186;2023-06-10T13:04:45;1.23;;;1.23;;
27566;SDS011;15006;48.584;9.186;2023-06-10T13:07:12;1.40;;;1.30;;
27566;SDS011;15006;48.584;9.186;2023-06-10T13:09:38;1.75;;;1.55;;
27566;SDS011;15006;48.584;9.186;2023-06-10T13:12:06;1.20;;;1.20;;
27566;SDS011;15006;48.584;9.186;2023-06-10T13:14:33;1.30;;;1.30;;
27566;SDS011;15006;48.584;9.186;2023-06-10T13:16:59;1.35;;;1.27;;
27566;SDS011;15006;48.584;9.186;2023-06-10T13:19:26;1.60;;;1.50;;
27566;SDS011;15006;48.584;9.186;2023-06-10T13:21:52;2.33;;;1.15;;
27566;SDS011;15006;48.584;9.186;2023-06-10T13:24:18;1.08;;;1.08;;
27566;SDS011;15006;48.584;9.186;2023-06-10T13:26:45;6.90;;;1.17;;
27566;SDS011;15006;48.584;9.186;2023-06-10T13:29:12;1.00;;;1.00;;
27566;SDS011;15006;48.584;9.186;2023-06-10T13:31:40;1.40;;;1.30;;
27566;SDS011;15006;48.584;9.186;2023-06-10T13:34:07;3.63;;;1.08;;
27566;SDS011;15006;48.584;9.186;2023-06-10T13:36:33;1.20;;;1.20;;
27566;SDS011;15006;48.584;9.186;2023-06-10T13:39:00;1.30;;;1.20;;
27566;SDS011;15006;48.584;9.186;2023-06-10T13:41:26;1.25;;;1.23;;
27566;SDS011;15006;48.584;9.186;2023-06-10T13:43:54;1.20;;;1.10;;
27566;SDS011;15006;48.584;9.186;2023-06-10T13:46:20;2.58;;;1.05;;
27566;SDS011;15006;48.584;9.186;2023-06-10T13:48:47;2.67;;;1.17;;
27566;SDS011;15006;48.584;9.186;2023-06-10T13:51:13;1.20;;;1.20;;
27566;SDS011;15006;48.584;9.186;2023-06-10T13:53:39;0.93;;;0.93;;
27566;SDS011;15006;48.584;9.186;2023-06-10T13:56:05;1.45;;;1.33;;
27566;SDS011;15006;48.584;9.186;2023-06-10T13:58:31;1.20;;;1.10;;
27566;SDS011;15006;48.584;9.186;2023-06-10T14:00:57;1.30;;;1.30;;
27566;SDS011;15006;48.584;9.186;2023-06-10T14:03:23;1.90;;;1.40;;
27566;SDS011;15006;48.584;9.186;2023-06-10T14:05:50;5.35;;;2.55;;
27566;SDS011;15006;48.584;9.186;2023-06-10T14:08:16;1.42;;;1.38;;
27566;SDS011;15006;48.584;9.186;2023-06-10T14:10:42;1.30;;;1.30;;
27566;SDS011;15006;48.584;9.186;2023-06-10T14:13:08;1.30;;;1.30;;
27566;SDS011;15006;48.584;9.186;2023-06-10T14:15:35;1.45;;;1.45;;
27566;SDS011;15006;48.584;9.186;2023-06-10T14:18:01;1.30;;;1.23;;
27566;SDS011;15006;48.584;9.186;2023-06-10T14:20:27;1.35;;;1.33;;
27566;SDS011;15006;48.584;9.186;2023-06-10T14:22:57;1.97;;;1.87;;
27566;SDS011;15006;48.584;9.186;2023-06-10T14:25:24;1.38;;;1.38;;
27566;SDS011;15006;48.584;9.186;2023-06-10T14:30:19;2.97;;;1.80;;
27566;SDS011;15006;48.584;9.186;2023-06-10T14:32:46;1.55;;;1.52;;
27566;SDS011;15006;48.584;9.186;2023-06-10T14:35:12;4.72;;;1.95;;
27566;SDS011;15006;48.584;9.186;2023-06-10T14:37:38;1.40;;;1.40;;
27566;SDS011;15006;48.584;9.186;2023-06-10T14:40:04;2.72;;;1.42;;
27566;SDS011;15006;48.584;9.186;2023-06-10T14:42:32;3.80;;;1.50;;
27566;SDS011;15006;48.584;9.186;2023-06-10T14:44:58;1.30;;;1.23;;
27566;SDS011;15006;48.584;9.186;2023-06-10T14:47:24;3.00;;;1.42;;
27566;SDS011;15006;48.584;9.186;2023-06-10T14:49:51;1.73;;;1.50;;
27566;SDS011;15006;48.584;9.186;2023-06-10T14:52:17;1.27;;;1.27;;
27566;SDS011;15006;48.584;9.186;2023-06-10T14:54:43;1.23;;;1.23;;
27566;SDS011;15006;48.584;9.186;2023-06-10T14:57:09;1.48;;;1.48;;
27566;SDS011;15006;48.584;9.186;2023-06-10T14:59:36;1.35;;;1.30;;
27566;SDS011;15006;48.584;9.186;2023-06-10T15:02:02;1.58;;;1.42;;
27566;SDS011;15006;48.584;9.186;2023-06-10T15:04:29;1.75;;;1.55;;
27566;SDS011;15006;48.584;9.186;2023-06-10T15:06:55;2.60;;;1.58;;
27566;SDS011;15006;48.584;9.186;2023-06-10T15:09:21;1.80;;;1.70;;